Time;durP1;ratioP1;P1;durP2;ratioP2;P2;SDS_P1;SDS_P2;PMS_P1;PMS_P2;Temp;Humidity;BMP_temperature;BMP_pressure;BME280_temperature;BME280_humidity;BME280_pressure;Samples;Min_cycle;Max_cycle;Signal;HPM_P1;HPM_P2
2024/03/10 00:01:52;;;;;;;6.35;2.38;;;21.50;54.00;;;;;;5023893;28;88721;-61
2024/03/10 00:04:17;;;;;;;1.90;1.37;;;21.60;54.00;;;;;;5019031;27;87611;-63
2024/03/10 00:06:45;;;;;;;5.43;2.00;;;21.50;54.00;;;;;;5030837;27;88194;-60
2024/03/10 00:09:11;;;;;;;4.57;2.05;;;21.50;53.90;;;;;;5017246;27;89416;-63
2024/03/10 00:11:38;;;;;;;6.03;2.47;;;21.60;54.00;;;;;;5017459;27;87073;-62
2024/03/10 00:14:05;;;;;;;4.13;1.67;;;21.50;53.90;;;;;;5028921;28;87355;-64
2024/03/10 00:16:31;;;;;;;3.28;2.00;;;21.50;54.30;;;;;;5016882;27;88042;-61
2024/03/10 00:18:58;;;;;;;3.92;1.98;;;21.50;53.90;;;;;;5029263;27;89121;-61
2024/03/10 00:21:23;;;;;;;3.67;2.33;;;21.50;53.80;;;;;;5015046;27;87896;-62
2024/03/10 00:23:49;;;;;;;1.77;1.48;;;21.50;53.80;;;;;;5017560;27;88366;-62
2024/03/10 00:26:15;;;;;;;3.40;1.85;;;21.50;53.80;;;;;;5016140;27;88260;-65
2024/03/10 00:28:41;;;;;;;3.50;2.22;;;21.50;53.80;;;;;;5019907;28;87392;-61
2024/03/10 00:31:10;;;;;;;2.88;1.50;;;21.50;53.70;;;;;;5019470;27;88817;-64
2024/03/10 00:33:37;;;;;;;8.23;2.17;;;21.50;53.80;;;;;;5012617;27;88193;-62
2024/03/10 00:36:07;;;;;;;4.85;2.13;;;21.40;53.70;;;;;;5018308;27;88879;-60
2024/03/10 00:38:33;;;;;;;4.43;1.77;;;21.50;53.70;;;;;;5018093;27;88819;-61
2024/03/10 00:40:59;;;;;;;3.90;1.70;;;21.50;53.70;;;;;;5018728;28;87491;-63
2024/03/10 00:43:25;;;;;;;3.17;1.60;;;21.50;53.60;;;;;;5022167;27;88737;-61
2024/03/10 00:45:51;;;;;;;3.22;2.00;;;21.40;53.50;;;;;;5031749;27;89751;-61
2024/03/10 00:48:18;;;;;;;2.70;1.60;;;21.50;53.60;;;;;;5015764;27;87196;-63
2024/03/10 00:50:46;;;;;;;3.03;1.70;;;21.40;53.60;;;;;;5020264;27;87205;-61
2024/03/10 00:53:13;;;;;;;4.93;1.83;;;21.40;53.70;;;;;;5015811;28;90450;-65
2024/03/10 00:55:39;;;;;;;4.45;2.03;;;21.40;53.60;;;;;;5014210;28;91911;-61
2024/03/10 00:58:05;;;;;;;3.15;1.58;;;21.40;53.70;;;;;;5022051;27;86870;-61
2024/03/10 01:00:32;;;;;;;2.50;1.75;;;21.40;53.70;;;;;;5026674;27;88076;-63
2024/03/10 01:02:58;;;;;;;5.20;2.25;;;21.40;53.60;;;;;;5024729;27;89489;-61
2024/03/10 01:05:24;;;;;;;2.67;1.60;;;21.40;53.60;;;;;;5014233;27;87694;-61
2024/03/10 01:07:50;;;;;;;3.83;1.90;;;21.40;53.80;;;;;;5018635;28;88709;-60
2024/03/10 01:10:16;;;;;;;2.78;1.75;;;21.30;53.60;;;;;;5012634;27;87110;-63
2024/03/10 01:12:43;;;;;;;2.58;2.08;;;21.30;53.60;;;;;;5015730;27;89020;-61
2024/03/10 01:15:08;;;;;;;3.78;2.00;;;21.40;53.60;;;;;;5017894;27;87708;-61
2024/03/10 01:17:34;;;;;;;3.15;1.90;;;21.30;53.60;;;;;;5011338;27;87158;-62
2024/03/10 01:20:02;;;;;;;3.90;1.77;;;21.40;53.70;;;;;;5019234;28;87573;-62
2024/03/10 01:22:27;;;;;;;4.70;1.85;;;21.30;53.30;;;;;;5031870;27;90224;-63
2024/03/10 01:24:55;;;;;;;2.95;1.77;;;21.30;53.40;;;;;;5022747;27;88054;-61
2024/03/10 01:27:22;;;;;;;3.42;2.00;;;21.30;53.40;;;;;;5017210;27;87821;-61
2024/03/10 01:29:47;;;;;;;2.70;1.80;;;21.30;53.40;;;;;;5020866;27;88152;-63
2024/03/10 01:32:13;;;;;;;4.28;1.80;;;21.30;53.40;;;;;;5029154;27;89021;-64
2024/03/10 01:34:38;;;;;;;2.58;1.50;;;21.30;53.40;;;;;;5017295;28;88573;-63
2024/03/10 01:37:05;;;;;;;3.47;1.50;;;21.30;53.40;;;;;;5028515;27;87584;-60
2024/03/10 01:39:31;;;;;;;3.50;2.10;;;21.30;53.50;;;;;;5016714;27;89541;-65
2024/03/10 01:41:57;;;;;;;3.30;1.70;;;21.30;53.40;;;;;;5018062;27;88981;-61
2024/03/10 01:44:23;;;;;;;2.35;1.77;;;21.30;53.30;;;;;;5013777;27;88406;-61
2024/03/10 01:46:50;;;;;;;4.15;2.30;;;21.30;53.30;;;;;;5018511;28;87483;-64
2024/03/10 01:49:17;;;;;;;4.32;2.20;;;21.30;53.30;;;;;;5014473;27;88843;-60
2024/03/10 01:51:44;;;;;;;2.55;1.90;;;21.20;53.30;;;;;;5017551;27;88247;-64
2024/03/10 01:54:12;;;;;;;4.35;1.80;;;21.20;53.30;;;;;;5020033;27;88591;-62
2024/03/10 01:56:40;;;;;;;3.37;1.80;;;21.20;53.30;;;;;;5019960;27;87988;-61
2024/03/10 01:59:09;;;;;;;4.32;2.00;;;21.30;53.30;;;;;;5020245;28;89078;-61
2024/03/10 02:01:38;;;;;;;2.83;1.90;;;21.30;53.30;;;;;;5012396;27;88139;-61
2024/03/10 02:04:09;;;;;;;2.50;1.40;;;21.20;53.20;;;;;;5021208;27;87817;-61
2024/03/10 02:06:43;;;;;;;3.70;1.70;;;21.20;53.20;;;;;;5013513;28;87487;-61
2024/03/10 02:09:09;;;;;;;3.80;1.95;;;21.20;53.10;;;;;;5016012;27;87161;-61
2024/03/10 02:11:36;;;;;;;3.05;1.70;;;21.20;53.20;;;;;;5019051;27;88225;-62
2024/03/10 02:14:02;;;;;;;2.53;1.73;;;21.20;53.10;;;;;;5018420;28;87797;-61
2024/03/10 02:16:28;;;;;;;2.90;1.65;;;21.20;53.20;;;;;;5020131;27;87752;-61
2024/03/10 02:18:54;;;;;;;2.90;1.50;;;21.20;53.20;;;;;;5031832;27;87339;-66
2024/03/10 02:21:21;;;;;;;3.22;1.80;;;21.20;53.30;;;;;;5037949;27;88300;-65
2024/03/10 02:23:59;;;;;;;4.57;2.20;;;21.20;53.20;;;;;;5040601;27;87855;-65
2024/03/10 02:26:32;;;;;;;2.75;1.73;;;21.10;53.20;;;;;;5046747;27;86099;-65
2024/03/10 02:29:15;;;;;;;1.88;1.63;;;21.20;53.30;;;;;;5041893;28;88179;-62
2024/03/10 02:48:35;;;;;;;2.90;1.60;;;21.10;53.20;;;;;;5011529;27;88377;-61
2024/03/10 02:51:00;;;;;;;3.20;1.67;;;21.10;53.10;;;;;;5014006;27;88569;-61
2024/03/10 02:53:26;;;;;;;4.68;1.92;;;21.10;53.10;;;;;;5013839;27;88135;-60
2024/03/10 02:55:53;;;;;;;2.90;1.70;;;21.10;53.10;;;;;;5032436;27;88877;-63
2024/03/10 02:58:20;;;;;;;2.58;1.63;;;21.10;53.30;;;;;;5014977;27;87727;-64
2024/03/10 03:00:47;;;;;;;3.13;1.77;;;21.10;53.20;;;;;;5015510;27;87118;-61
2024/03/10 03:03:13;;;;;;;2.58;1.55;;;21.10;53.00;;;;;;5016612;27;88187;-63
2024/03/10 03:05:40;;;;;;;4.28;2.20;;;21.10;53.20;;;;;;5017498;27;87160;-63
2024/03/10 03:08:07;;;;;;;2.75;1.80;;;21.10;53.10;;;;;;5017795;27;88238;-61
2024/03/10 03:10:33;;;;;;;3.15;1.65;;;21.10;53.60;;;;;;5014072;27;87663;-61
2024/03/10 03:12:59;;;;;;;4.10;2.58;;;21.10;53.20;;;;;;5013304;27;89659;-61
2024/03/10 03:15:24;;;;;;;4.22;2.00;;;21.10;52.90;;;;;;5019539;28;88680;-61
2024/03/10 03:17:50;;;;;;;2.92;1.77;;;21.00;53.00;;;;;;5019381;27;87436;-61
2024/03/10 03:20:16;;;;;;;2.33;1.75;;;21.00;53.00;;;;;;5019265;27;87595;-62
2024/03/10 03:22:46;;;;;;;1.80;1.48;;;21.00;53.00;;;;;;5014827;28;87643;-62
2024/03/10 03:25:13;;;;;;;1.52;1.20;;;21.00;52.90;;;;;;5020683;27;87267;-62
2024/03/10 03:27:45;;;;;;;3.28;1.73;;;21.00;52.90;;;;;;5019046;27;87026;-64
2024/03/10 03:30:11;;;;;;;2.65;2.00;;;21.00;52.70;;;;;;5014215;27;86903;-63
2024/03/10 03:32:37;;;;;;;2.33;1.40;;;21.00;53.00;;;;;;5018562;28;88340;-61
2024/03/10 03:35:04;;;;;;;3.30;1.38;;;21.00;52.90;;;;;;5011508;28;88287;-64
2024/03/10 03:37:30;;;;;;;2.10;1.45;;;21.00;53.00;;;;;;5009858;28;89130;-64
2024/03/10 03:39:57;;;;;;;2.78;1.95;;;21.00;52.90;;;;;;5016290;27;88067;-61
2024/03/10 03:42:22;;;;;;;2.53;1.73;;;21.00;52.90;;;;;;5021819;27;88696;-65
2024/03/10 03:44:51;;;;;;;2.80;1.67;;;21.00;52.80;;;;;;5014811;27;87948;-61
2024/03/10 03:47:17;;;;;;;1.92;1.55;;;20.90;52.90;;;;;;5016067;27;87560;-63
2024/03/10 03:49:45;;;;;;;2.28;1.77;;;21.00;52.90;;;;;;5015689;28;87579;-63
2024/03/10 03:52:11;;;;;;;2.45;1.60;;;21.00;53.00;;;;;;5029340;27;89291;-62
2024/03/10 03:54:39;;;;;;;1.83;1.30;;;20.90;52.90;;;;;;5014028;27;87756;-61
2024/03/10 03:57:06;;;;;;;2.70;2.00;;;21.00;53.10;;;;;;5016004;27;87113;-60
2024/03/10 03:59:32;;;;;;;2.45;1.63;;;21.00;53.00;;;;;;5016903;27;87871;-61
2024/03/10 04:01:59;;;;;;;3.00;1.58;;;21.00;53.10;;;;;;5018403;28;88981;-60
2024/03/10 04:04:25;;;;;;;4.88;1.90;;;20.90;52.90;;;;;;5011368;27;88340;-63
2024/03/10 04:06:51;;;;;;;2.72;1.77;;;21.00;53.00;;;;;;5014430;27;87388;-63
2024/03/10 04:09:16;;;;;;;2.22;1.52;;;21.00;52.90;;;;;;5016438;27;87980;-61
2024/03/10 04:11:43;;;;;;;4.18;2.03;;;20.90;52.80;;;;;;5016696;27;87602;-61
2024/03/10 04:14:09;;;;;;;2.58;1.60;;;20.90;52.90;;;;;;5010727;28;89480;-64
2024/03/10 04:16:36;;;;;;;2.08;1.70;;;20.90;52.70;;;;;;5018715;27;88954;-61
2024/03/10 04:19:04;;;;;;;2.45;1.92;;;20.90;52.80;;;;;;5015755;27;86826;-65
2024/03/10 04:21:33;;;;;;;2.80;1.40;;;20.90;52.80;;;;;;5019299;27;88203;-61
2024/03/10 04:23:59;;;;;;;2.67;1.52;;;20.90;52.70;;;;;;5019149;27;87849;-62
2024/03/10 04:26:27;;;;;;;2.33;1.65;;;20.90;52.80;;;;;;5029896;27;87865;-63
2024/03/10 04:28:54;;;;;;;3.05;2.28;;;20.90;52.90;;;;;;5016063;28;87944;-64
2024/03/10 04:31:20;;;;;;;2.78;1.77;;;20.90;52.80;;;;;;5020156;27;88958;-60
2024/03/10 04:33:47;;;;;;;2.72;1.63;;;20.90;52.80;;;;;;5034204;27;90587;-63
2024/03/10 04:36:14;;;;;;;2.53;1.77;;;20.90;52.80;;;;;;5019931;27;87233;-64
2024/03/10 04:38:43;;;;;;;4.40;1.40;;;20.90;52.80;;;;;;5036245;27;88627;-62
2024/03/10 04:41:09;;;;;;;3.10;1.70;;;20.80;52.70;;;;;;5022877;28;87974;-62
2024/03/10 04:43:35;;;;;;;3.63;1.65;;;20.90;52.70;;;;;;5019248;27;88146;-62
2024/03/10 04:46:03;;;;;;;4.07;1.80;;;20.90;52.70;;;;;;5021830;27;87224;-62
2024/03/10 04:48:32;;;;;;;2.78;1.83;;;20.80;52.60;;;;;;5014115;27;87390;-61
2024/03/10 04:51:00;;;;;;;2.30;1.60;;;20.90;52.70;;;;;;5029911;27;88881;-61
2024/03/10 04:53:30;;;;;;;1.90;1.67;;;20.80;53.20;;;;;;5035368;27;88383;-62
2024/03/10 04:55:59;;;;;;;3.90;2.20;;;20.80;52.60;;;;;;5028909;28;87523;-62
2024/03/10 04:58:27;;;;;;;2.53;1.48;;;20.80;52.60;;;;;;5033691;27;87475;-61
2024/03/10 05:00:55;;;;;;;4.20;1.65;;;20.80;52.60;;;;;;5011566;27;88158;-62
2024/03/10 05:03:20;;;;;;;1.42;1.25;;;20.80;52.70;;;;;;5017956;27;87948;-63
2024/03/10 05:05:50;;;;;;;2.33;1.67;;;20.80;52.60;;;;;;5026893;27;87253;-62
2024/03/10 05:08:16;;;;;;;1.58;1.08;;;20.80;52.60;;;;;;5041729;27;87249;-62
2024/03/10 05:10:43;;;;;;;2.50;1.77;;;20.80;52.50;;;;;;5020448;28;88390;-62
2024/03/10 05:13:10;;;;;;;3.03;1.80;;;20.80;52.50;;;;;;5016478;27;88341;-61
2024/03/10 05:15:36;;;;;;;2.13;1.73;;;20.80;52.50;;;;;;5013334;28;88336;-61
2024/03/10 05:18:03;;;;;;;1.88;1.38;;;20.80;52.50;;;;;;5032249;27;86875;-63
2024/03/10 05:20:29;;;;;;;3.13;1.83;;;20.70;52.50;;;;;;5027047;27;89576;-61
2024/03/10 05:22:56;;;;;;;1.75;1.48;;;20.80;52.50;;;;;;5021866;28;87704;-62
2024/03/10 05:25:24;;;;;;;2.40;1.48;;;20.80;53.10;;;;;;5007326;28;87642;-61
2024/03/10 05:27:51;;;;;;;2.65;1.45;;;20.80;52.50;;;;;;5013397;27;87503;-66
2024/03/10 05:30:18;;;;;;;1.63;1.52;;;20.80;52.60;;;;;;5011534;27;89748;-62
2024/03/10 05:32:44;;;;;;;2.75;1.50;;;20.80;52.50;;;;;;5016908;27;88437;-62
2024/03/10 05:35:14;;;;;;;1.98;1.70;;;20.70;52.30;;;;;;5017350;28;87424;-61
2024/03/10 05:37:46;;;;;;;1.55;1.30;;;20.80;52.40;;;;;;5034209;27;91499;-62
2024/03/10 05:40:14;;;;;;;4.28;2.35;;;20.70;52.40;;;;;;5017910;27;90233;-66
2024/03/10 05:42:40;;;;;;;2.75;1.95;;;20.70;52.50;;;;;;5028008;27;90132;-63
2024/03/10 05:45:07;;;;;;;2.38;1.63;;;20.70;52.50;;;;;;5013402;27;88890;-61
2024/03/10 05:47:34;;;;;;;3.10;2.08;;;20.70;52.40;;;;;;5015645;27;87534;-63
2024/03/10 05:49:59;;;;;;;2.85;1.88;;;20.70;52.50;;;;;;5021761;28;87362;-61
2024/03/10 05:52:26;;;;;;;2.17;1.58;;;20.70;52.40;;;;;;5010946;27;87406;-62
2024/03/10 05:54:52;;;;;;;2.00;1.60;;;20.70;52.40;;;;;;5026487;27;87337;-62
2024/03/10 05:57:18;;;;;;;2.40;1.70;;;20.70;52.40;;;;;;5015671;27;86505;-63
2024/03/10 05:59:45;;;;;;;2.85;1.60;;;20.70;52.30;;;;;;5017258;27;87622;-63
2024/03/10 06:02:16;;;;;;;1.27;0.98;;;20.80;52.40;;;;;;5012832;28;88366;-60
2024/03/10 06:04:42;;;;;;;3.78;1.33;;;20.90;52.10;;;;;;5015474;28;88351;-60
2024/03/10 06:07:10;;;;;;;1.55;1.42;;;20.90;52.30;;;;;;5016853;27;87141;-66
2024/03/10 06:09:36;;;;;;;2.88;1.80;;;20.90;52.10;;;;;;5018288;27;88748;-67
2024/03/10 06:12:08;;;;;;;4.05;1.77;;;21.00;52.20;;;;;;5018188;27;87730;-72
2024/03/10 06:14:39;;;;;;;5.82;1.70;;;21.00;52.20;;;;;;5013443;27;86878;-69
2024/03/10 06:17:08;;;;;;;2.15;1.50;;;21.10;52.10;;;;;;5031266;27;87894;-67
2024/03/10 06:27:48;;;;;;;3.67;1.60;;;21.50;52.00;;;;;;5010904;27;87423;-73
2024/03/10 06:30:14;;;;;;;13.90;3.58;;;21.60;51.70;;;;;;5015081;27;90373;-70
2024/03/10 06:32:40;;;;;;;16.15;3.75;;;21.60;51.30;;;;;;5041800;27;89407;-68
2024/03/10 06:35:06;;;;;;;5.32;2.50;;;21.60;51.20;;;;;;5013098;28;87440;-70
2024/03/10 06:37:35;;;;;;;6.22;3.20;;;21.60;51.00;;;;;;5008606;28;88192;-73
2024/03/10 06:40:05;;;;;;;10.85;2.47;;;21.50;50.80;;;;;;5013559;27;88031;-70
2024/03/10 06:42:30;;;;;;;8.15;2.33;;;21.50;50.90;;;;;;5023237;27;87705;-69
2024/03/10 06:44:56;;;;;;;12.32;2.70;;;21.50;50.90;;;;;;5026041;27;87423;-69
2024/03/10 06:47:22;;;;;;;9.60;2.17;;;21.40;51.00;;;;;;5007471;27;86295;-74
2024/03/10 06:49:50;;;;;;;11.88;2.10;;;21.50;51.60;;;;;;5013429;28;88620;-63
2024/03/10 06:52:18;;;;;;;5.82;2.08;;;21.50;51.80;;;;;;5030821;27;87865;-66
2024/03/10 06:54:47;;;;;;;5.38;2.40;;;21.50;51.80;;;;;;5028170;27;88383;-75
2024/03/10 06:57:14;;;;;;;4.75;2.17;;;21.50;52.10;;;;;;5027237;27;88067;-69
2024/03/10 06:59:45;;;;;;;7.03;2.13;;;21.50;52.20;;;;;;5019362;28;88495;-63
2024/03/10 07:02:13;;;;;;;6.50;2.28;;;21.40;52.30;;;;;;5026477;27;88510;-60
2024/03/10 07:04:44;;;;;;;7.32;2.17;;;21.50;52.70;;;;;;5011196;28;87504;-65
2024/03/10 07:07:09;;;;;;;12.07;2.85;;;21.50;53.30;;;;;;5008816;27;88020;-73
2024/03/10 07:09:35;;;;;;;8.02;2.20;;;21.40;53.20;;;;;;5011047;27;87566;-70
2024/03/10 07:12:06;;;;;;;6.43;2.88;;;21.40;53.30;;;;;;5010841;27;87321;-69
2024/03/10 07:14:33;;;;;;;10.90;2.67;;;21.40;54.10;;;;;;5025646;27;87607;-78
2024/03/10 07:17:00;;;;;;;8.82;2.28;;;21.50;54.20;;;;;;5012736;28;87647;-70
2024/03/10 07:19:26;;;;;;;5.40;2.10;;;21.50;54.00;;;;;;5009559;27;89698;-64
2024/03/10 07:21:52;;;;;;;6.40;2.67;;;21.60;53.90;;;;;;5024719;27;89427;-71
2024/03/10 07:24:19;;;;;;;10.32;2.88;;;21.70;53.50;;;;;;5012584;28;87698;-76
2024/03/10 07:26:45;;;;;;;7.07;2.83;;;21.80;53.50;;;;;;5022219;27;87766;-72
2024/03/10 07:29:11;;;;;;;9.85;3.50;;;21.90;53.50;;;;;;5029009;28;88555;-71
2024/03/10 07:31:38;;;;;;;10.68;3.55;;;21.90;53.20;;;;;;5028712;27;88285;-71
2024/03/10 07:34:03;;;;;;;12.63;3.78;;;22.00;53.30;;;;;;5014555;27;86849;-74
2024/03/10 07:36:29;;;;;;;30.70;3.03;;;22.10;53.40;;;;;;5009160;28;88233;-65
2024/03/10 07:38:56;;;;;;;7.13;2.38;;;22.10;53.30;;;;;;5004768;27;88610;-64
2024/03/10 07:41:22;;;;;;;7.88;3.05;;;22.10;53.30;;;;;;5009448;27;88315;-64
2024/03/10 07:43:49;;;;;;;8.35;2.92;;;22.10;53.50;;;;;;5009273;28;88663;-66
2024/03/10 07:46:18;;;;;;;6.75;2.25;;;22.00;53.50;;;;;;5011805;27;87765;-66
2024/03/10 07:48:44;;;;;;;9.27;2.55;;;22.00;53.50;;;;;;5009691;27;88591;-65
2024/03/10 07:51:14;;;;;;;14.02;3.55;;;21.90;53.30;;;;;;5002197;27;87855;-65
2024/03/10 07:53:43;;;;;;;7.70;3.13;;;21.80;53.40;;;;;;5004699;27;87680;-65
2024/03/10 07:56:09;;;;;;;16.17;3.67;;;21.80;53.50;;;;;;5026373;27;87203;-65
2024/03/10 07:58:36;;;;;;;9.23;3.83;;;21.70;53.30;;;;;;5010379;28;87558;-67
2024/03/10 08:01:03;;;;;;;13.13;3.72;;;21.70;53.50;;;;;;5032460;27;87414;-64
2024/03/10 08:03:29;;;;;;;11.75;3.47;;;21.80;54.10;;;;;;5019210;27;87388;-63
2024/03/10 08:05:55;;;;;;;11.32;4.07;;;21.80;53.40;;;;;;5028225;27;87555;-61
2024/03/10 08:08:24;;;;;;;14.57;3.70;;;21.80;54.30;;;;;;5032140;27;89035;-62
2024/03/10 08:10:50;;;;;;;12.63;3.40;;;21.70;54.90;;;;;;5050633;27;89484;-61
2024/03/10 08:13:15;;;;;;;10.18;4.53;;;21.70;55.30;;;;;;5027485;27;87485;-62
2024/03/10 08:15:41;;;;;;;13.13;3.00;;;21.70;55.30;;;;;;5032427;27;87579;-61
2024/03/10 08:18:08;;;;;;;16.30;4.97;;;21.80;55.20;;;;;;5031009;27;88150;-63
2024/03/10 08:20:35;;;;;;;14.23;4.78;;;21.80;53.20;;;;;;5028658;27;87844;-58
2024/03/10 08:23:04;;;;;;;22.95;5.00;;;21.80;53.60;;;;;;5033774;28;87752;-61
2024/03/10 08:25:30;;;;;;;18.20;4.63;;;21.80;51.80;;;;;;5032950;27;86838;-62
2024/03/10 08:27:58;;;;;;;11.10;3.88;;;21.90;50.90;;;;;;5031366;27;90477;-61
2024/03/10 08:30:26;;;;;;;11.47;3.40;;;21.90;51.10;;;;;;5039421;27;88561;-64
2024/03/10 08:32:51;;;;;;;18.88;5.40;;;21.90;50.60;;;;;;5046984;27;87868;-64
2024/03/10 08:35:20;;;;;;;7.70;3.15;;;22.00;50.10;;;;;;5037407;27;86869;-64
2024/03/10 08:37:48;;;;;;;13.38;4.78;;;22.00;51.60;;;;;;5070098;27;88990;-62
2024/03/10 08:40:16;;;;;;;10.70;3.28;;;21.90;51.90;;;;;;5070751;27;87391;-60
2024/03/10 08:42:43;;;;;;;12.75;4.45;;;21.90;52.50;;;;;;5031825;27;87326;-61
2024/03/10 08:45:10;;;;;;;10.55;3.35;;;21.90;53.20;;;;;;5029011;27;87353;-62
2024/03/10 08:47:44;;;;;;;8.65;3.10;;;22.00;53.30;;;;;;5025594;27;88112;-63
2024/03/10 08:50:11;;;;;;;8.00;3.05;;;22.10;53.50;;;;;;5015332;28;89140;-61
2024/03/10 08:52:38;;;;;;;17.33;3.78;;;22.20;53.50;;;;;;5029147;27;87394;-62
2024/03/10 08:55:05;;;;;;;5.50;2.53;;;22.30;54.00;;;;;;5033509;27;87644;-60
2024/03/10 08:57:32;;;;;;;7.15;2.70;;;22.50;53.50;;;;;;5029284;27;88515;-61
2024/03/10 09:00:02;;;;;;;8.45;2.92;;;22.60;53.00;;;;;;5022821;27;88988;-63
2024/03/10 09:02:29;;;;;;;7.32;3.00;;;22.60;52.70;;;;;;5026685;27;87592;-61
2024/03/10 09:04:55;;;;;;;5.75;2.80;;;22.70;52.20;;;;;;5027793;27;88052;-63
2024/03/10 09:07:21;;;;;;;6.82;2.90;;;22.70;51.90;;;;;;5012575;27;88110;-60
2024/03/10 09:09:49;;;;;;;8.65;2.63;;;22.60;52.00;;;;;;5008672;27;88669;-60
2024/03/10 09:12:15;;;;;;;8.48;3.13;;;22.70;52.20;;;;;;5012055;27;87488;-62
2024/03/10 09:14:40;;;;;;;8.20;3.03;;;22.60;52.60;;;;;;5018917;27;88195;-60
2024/03/10 09:17:06;;;;;;;7.57;2.88;;;22.60;53.20;;;;;;5025968;27;88683;-63
2024/03/10 09:19:32;;;;;;;9.27;2.95;;;22.60;53.40;;;;;;5032833;27;88312;-61
2024/03/10 09:22:00;;;;;;;6.88;2.83;;;22.50;53.80;;;;;;5034666;27;88970;-59
2024/03/10 09:24:28;;;;;;;6.50;2.78;;;22.50;53.80;;;;;;5032834;27;87445;-63
2024/03/10 09:26:57;;;;;;;5.63;3.33;;;22.50;54.00;;;;;;5029979;27;88930;-60
2024/03/10 09:29:26;;;;;;;5.40;2.40;;;22.40;54.20;;;;;;5032926;27;87468;-60
2024/03/10 09:31:55;;;;;;;8.32;3.38;;;22.40;54.30;;;;;;5035150;27;86910;-64
2024/03/10 09:34:24;;;;;;;;;;;22.30;54.10;;;;;;5026035;27;87319;-60
2024/03/10 09:36:50;;;;;;;6.65;2.90;;;22.30;53.80;;;;;;5016370;27;87879;-60
2024/03/10 09:39:16;;;;;;;8.90;3.47;;;22.20;54.60;;;;;;5014043;27;86909;-61
2024/03/10 09:41:43;;;;;;;6.93;3.28;;;22.20;54.70;;;;;;5025460;27;87164;-62
2024/03/10 09:44:19;;;;;;;8.27;3.20;;;22.20;55.20;;;;;;5028036;27;88158;-61
2024/03/10 09:46:50;;;;;;;8.35;3.70;;;22.30;54.40;;;;;;5028083;28;93884;-61
2024/03/10 09:49:18;;;;;;;6.85;3.42;;;22.20;54.80;;;;;;5032660;27;88597;-63
2024/03/10 09:51:49;;;;;;;6.38;2.47;;;22.10;53.20;;;;;;5022290;27;87226;-61
2024/03/10 09:54:18;;;;;;;8.30;3.13;;;22.10;53.80;;;;;;5030471;27;88333;-63
2024/03/10 09:56:49;;;;;;;5.95;3.15;;;22.20;51.10;;;;;;5015627;27;87687;-62
2024/03/10 09:59:23;;;;;;;5.75;2.42;;;22.20;53.20;;;;;;5040341;27;88550;-62
2024/03/10 10:01:53;;;;;;;10.73;3.65;;;22.20;53.40;;;;;;5032014;27;87564;-61
2024/03/10 10:04:25;;;;;;;6.75;3.25;;;22.20;53.20;;;;;;5011630;27;86958;-62
2024/03/10 10:06:52;;;;;;;4.32;2.25;;;22.20;53.40;;;;;;5017710;27;88891;-60
2024/03/10 10:09:18;;;;;;;10.10;2.70;;;22.20;53.80;;;;;;5013644;27;87344;-61
2024/03/10 10:11:47;;;;;;;9.15;3.17;;;22.30;53.10;;;;;;5018359;27;88597;-60
2024/03/10 10:14:23;;;;;;;9.55;3.05;;;22.40;53.10;;;;;;5030344;27;87249;-60
2024/03/10 10:16:56;;;;;;;5.25;2.58;;;22.50;52.90;;;;;;5021628;27;87294;-60
2024/03/10 10:19:26;;;;;;;4.78;2.53;;;22.50;53.00;;;;;;5018492;27;87328;-59
2024/03/10 10:21:52;;;;;;;5.20;2.72;;;22.60;52.90;;;;;;5008911;28;87490;-60
2024/03/10 10:24:19;;;;;;;5.97;2.90;;;22.50;52.40;;;;;;5012517;27;90130;-60
2024/03/10 10:27:06;;;;;;;5.45;2.55;;;22.50;51.20;;;;;;5021268;27;87991;-59
2024/03/10 10:29:53;;;;;;;7.38;2.95;;;22.50;50.10;;;;;;5014537;27;87027;-60
2024/03/10 10:32:23;;;;;;;5.43;2.78;;;22.40;49.70;;;;;;5022878;27;87602;-60
2024/03/10 10:34:51;;;;;;;9.30;3.33;;;22.50;49.20;;;;;;5037219;27;88579;-60
2024/03/10 10:37:17;;;;;;;9.07;3.40;;;22.50;48.90;;;;;;5032363;27;92046;-61
2024/03/10 10:39:44;;;;;;;5.30;3.22;;;22.40;48.10;;;;;;5030300;27;89470;-61
2024/03/10 10:42:11;;;;;;;4.97;2.75;;;22.20;47.90;;;;;;5021644;27;87229;-61
2024/03/10 10:44:40;;;;;;;11.23;3.70;;;22.10;49.40;;;;;;5024132;27;87509;-62
2024/03/10 10:47:08;;;;;;;6.90;3.42;;;22.10;48.90;;;;;;5030086;27;88474;-62
2024/03/10 10:49:35;;;;;;;6.47;3.88;;;22.10;48.50;;;;;;5038333;27;88673;-60
2024/03/10 10:52:02;;;;;;;7.07;3.22;;;22.00;47.80;;;;;;5002954;27;87144;-62
2024/03/10 10:54:29;;;;;;;6.43;3.17;;;22.00;48.20;;;;;;5004504;27;86945;-61
2024/03/10 10:56:56;;;;;;;4.03;2.75;;;22.10;48.40;;;;;;5013006;28;89440;-61
2024/03/10 10:59:24;;;;;;;7.32;3.45;;;22.10;48.90;;;;;;5012442;28;88289;-60
2024/03/10 11:02:19;;;;;;;5.35;3.13;;;22.20;48.90;;;;;;5000627;28;88415;-61
2024/03/10 11:04:46;;;;;;;4.90;2.75;;;22.20;49.00;;;;;;5015792;28;91219;-62
2024/03/10 11:07:15;;;;;;;5.22;3.05;;;22.20;48.90;;;;;;5032432;27;88145;-61
2024/03/10 11:09:42;;;;;;;4.53;2.95;;;22.30;48.90;;;;;;5028224;27;88103;-61
2024/03/10 11:12:28;;;;;;;4.40;2.95;;;22.30;49.30;;;;;;5029788;27;87144;-60
2024/03/10 11:14:55;;;;;;;6.00;2.53;;;22.20;48.90;;;;;;5040841;27;87250;-61
2024/03/10 11:17:23;;;;;;;7.10;2.88;;;22.20;49.40;;;;;;5025275;27;89013;-62
2024/03/10 11:19:51;;;;;;;7.03;2.97;;;22.20;49.50;;;;;;5015055;28;87215;-61
2024/03/10 11:22:27;;;;;;;4.38;2.92;;;22.10;49.80;;;;;;5037475;27;87518;-61
2024/03/10 11:25:08;;;;;;;4.13;2.22;;;22.10;50.20;;;;;;5023632;27;87889;-60
2024/03/10 11:27:42;;;;;;;3.10;2.30;;;22.10;50.10;;;;;;5011015;28;90004;-60
2024/03/10 11:30:44;;;;;;;4.80;2.35;;;22.10;50.10;;;;;;5014970;27;89400;-61
2024/03/10 11:33:12;;;;;;;6.93;2.95;;;22.10;50.00;;;;;;5018717;27;87808;-61
2024/03/10 11:35:39;;;;;;;5.28;2.65;;;22.10;49.80;;;;;;5014058;27;88028;-60
2024/03/10 11:38:05;;;;;;;6.15;2.90;;;22.10;49.80;;;;;;5058056;27;88052;-64
2024/03/10 11:40:31;;;;;;;3.78;2.60;;;22.10;50.90;;;;;;5025417;27;86920;-60
2024/03/10 11:43:06;;;;;;;4.78;2.85;;;22.20;50.60;;;;;;5028120;27;87208;-64
2024/03/10 11:45:34;;;;;;;7.65;2.70;;;22.40;50.50;;;;;;5020076;27;87854;-63
2024/03/10 11:48:00;;;;;;;8.63;3.67;;;22.40;50.20;;;;;;5030053;27;89643;-62
2024/03/10 11:50:29;;;;;;;3.97;2.38;;;22.30;49.80;;;;;;5025932;27;87841;-62
2024/03/10 11:52:55;;;;;;;;;;;22.30;50.80;;;;;;5017848;28;88848;-66
2024/03/10 11:55:21;;;;;;;5.65;2.90;;;22.30;50.10;;;;;;5023056;27;87480;-65
2024/03/10 11:57:54;;;;;;;6.60;2.92;;;22.30;50.50;;;;;;5014534;27;88479;-62
2024/03/10 12:00:21;;;;;;;5.85;3.60;;;22.20;50.70;;;;;;5033278;27;87618;-65
2024/03/10 12:02:54;;;;;;;4.35;2.60;;;22.20;50.80;;;;;;4994477;28;87588;-64
2024/03/10 12:05:19;;;;;;;4.55;2.65;;;22.20;50.70;;;;;;5000573;27;87292;-65
2024/03/10 12:07:53;;;;;;;3.72;2.65;;;22.20;50.90;;;;;;5013775;28;88634;-65
2024/03/10 12:10:21;;;;;;;7.18;3.05;;;22.20;51.00;;;;;;5008523;28;87691;-66
2024/03/10 12:12:51;;;;;;;5.93;2.67;;;22.20;51.30;;;;;;4997795;28;87437;-65
2024/03/10 12:15:18;;;;;;;4.40;2.17;;;22.20;51.40;;;;;;4993834;28;87505;-64
2024/03/10 12:17:50;;;;;;;6.07;2.95;;;22.20;51.10;;;;;;4994860;28;89137;-62
2024/03/10 12:20:18;;;;;;;24.27;3.30;;;22.20;51.80;;;;;;5005333;27;90223;-63
2024/03/10 12:22:45;;;;;;;4.25;2.60;;;22.20;51.30;;;;;;5001684;28;87246;-62
2024/03/10 12:25:13;;;;;;;3.83;2.33;;;22.30;51.30;;;;;;5004391;27;87438;-64
2024/03/10 12:27:39;;;;;;;5.10;2.50;;;22.30;51.30;;;;;;5015889;27;88993;-61
2024/03/10 12:30:10;;;;;;;4.88;2.63;;;22.40;52.10;;;;;;5027784;27;89091;-63
2024/03/10 12:32:52;;;;;;;4.80;2.55;;;22.40;51.40;;;;;;5002259;27;87438;-66
2024/03/10 12:35:21;;;;;;;3.95;2.65;;;22.40;51.50;;;;;;5006143;28;87313;-64
2024/03/10 12:37:47;;;;;;;4.72;2.80;;;22.40;51.50;;;;;;4993699;28;87930;-62
2024/03/10 12:40:16;;;;;;;6.10;2.83;;;22.40;51.30;;;;;;5001849;28;87268;-65
2024/03/10 12:42:49;;;;;;;6.07;3.45;;;22.40;50.40;;;;;;5011413;27;88507;-63
2024/03/10 12:45:18;;;;;;;6.68;2.80;;;22.40;49.90;;;;;;4989812;28;87552;-64
2024/03/10 12:47:45;;;;;;;6.90;3.03;;;22.40;50.60;;;;;;4991205;28;89670;-63
2024/03/10 12:50:14;;;;;;;4.45;2.40;;;22.40;51.10;;;;;;4990577;28;88939;-62
2024/03/10 12:52:40;;;;;;;4.68;2.17;;;22.40;51.20;;;;;;4982942;28;87454;-64
2024/03/10 12:55:08;;;;;;;4.13;2.33;;;22.30;51.40;;;;;;4992024;28;87446;-62
2024/03/10 12:57:39;;;;;;;5.63;2.42;;;22.30;51.50;;;;;;4992270;28;88604;-63
2024/03/10 13:02:47;;;;;;;6.55;2.65;;;22.20;51.50;;;;;;5004487;27;87491;-65
2024/03/10 13:05:14;;;;;;;6.38;2.70;;;22.30;51.60;;;;;;5009881;27;87390;-63
2024/03/10 13:07:41;;;;;;;6.47;2.60;;;22.30;51.60;;;;;;5010695;28;91636;-64
2024/03/10 13:10:07;;;;;;;5.60;2.65;;;22.20;51.70;;;;;;5008722;28;89948;-64
2024/03/10 13:12:33;;;;;;;5.38;2.67;;;22.20;51.70;;;;;;5008053;27;87238;-62
2024/03/10 13:15:00;;;;;;;6.05;2.55;;;22.30;51.80;;;;;;5009889;28;87301;-61
2024/03/10 13:17:29;;;;;;;3.47;2.42;;;22.20;52.40;;;;;;5027456;28;88105;-62